sensor_id;sensor_type;location;lat;lon;timestamp;P1;durP1;ratioP1;P2;durP2;ratioP2
23802;SDS011;12082;51.786;6.018;2023-02-11T00:00:51;42.83;;;31.30;;
23802;SDS011;12082;51.786;6.018;2023-02-11T00:03:17;42.77;;;31.03;;
23802;SDS011;12082;51.786;6.018;2023-02-11T00:05:43;47.73;;;32.20;;
23802;SDS011;12082;51.786;6.018;2023-02-11T00:08:09;45.97;;;31.37;;
23802;SDS011;12082;51.786;6.018;2023-02-11T00:10:40;41.10;;;30.70;;
23802;SDS011;12082;51.786;6.018;2023-02-11T00:13:06;42.47;;;30.27;;
23802;SDS011;12082;51.786;6.018;2023-02-11T00:15:32;43.87;;;29.43;;
23802;SDS011;12082;51.786;6.018;2023-02-11T00:17:58;40.80;;;31.00;;
23802;SDS011;12082;51.786;6.018;2023-02-11T00:20:24;54.20;;;32.63;;
23802;SDS011;12082;51.786;6.018;2023-02-11T00:22:50;41.83;;;30.90;;
23802;SDS011;12082;51.786;6.018;2023-02-11T00:25:16;39.70;;;30.27;;
23802;SDS011;12082;51.786;6.018;2023-02-11T00:27:42;51.33;;;29.47;;
23802;SDS011;12082;51.786;6.018;2023-02-11T00:30:09;47.17;;;31.73;;
23802;SDS011;12082;51.786;6.018;2023-02-11T00:32:35;41.47;;;29.63;;
23802;SDS011;12082;51.786;6.018;2023-02-11T00:35:01;48.17;;;30.10;;
23802;SDS011;12082;51.786;6.018;2023-02-11T00:37:27;40.03;;;29.37;;
23802;SDS011;12082;51.786;6.018;2023-02-11T00:39:53;37.30;;;28.67;;
23802;SDS011;12082;51.786;6.018;2023-02-11T00:42:19;48.00;;;29.90;;
23802;SDS011;12082;51.786;6.018;2023-02-11T00:44:45;41.23;;;28.80;;
23802;SDS011;12082;51.786;6.018;2023-02-11T00:47:11;45.00;;;29.83;;
23802;SDS011;12082;51.786;6.018;2023-02-11T00:49:37;45.07;;;28.07;;
23802;SDS011;12082;51.786;6.018;2023-02-11T00:52:04;37.80;;;28.70;;
23802;SDS011;12082;51.786;6.018;2023-02-11T00:54:30;38.47;;;28.17;;
23802;SDS011;12082;51.786;6.018;2023-02-11T00:56:56;42.47;;;29.30;;
23802;SDS011;12082;51.786;6.018;2023-02-11T00:59:22;46.17;;;29.70;;
23802;SDS011;12082;51.786;6.018;2023-02-11T01:01:48;31.10;;;27.80;;
23802;SDS011;12082;51.786;6.018;2023-02-11T01:04:14;43.10;;;26.73;;
23802;SDS011;12082;51.786;6.018;2023-02-11T01:06:40;37.70;;;28.13;;
23802;SDS011;12082;51.786;6.018;2023-02-11T01:09:06;35.17;;;26.10;;
23802;SDS011;12082;51.786;6.018;2023-02-11T01:11:32;37.80;;;26.73;;
23802;SDS011;12082;51.786;6.018;2023-02-11T01:13:58;36.03;;;27.23;;
23802;SDS011;12082;51.786;6.018;2023-02-11T01:16:24;30.63;;;25.77;;
23802;SDS011;12082;51.786;6.018;2023-02-11T01:18:50;37.67;;;27.80;;
23802;SDS011;12082;51.786;6.018;2023-02-11T01:21:16;31.27;;;25.57;;
23802;SDS011;12082;51.786;6.018;2023-02-11T01:23:41;31.00;;;25.17;;
23802;SDS011;12082;51.786;6.018;2023-02-11T01:26:07;37.57;;;25.87;;
23802;SDS011;12082;51.786;6.018;2023-02-11T01:28:33;30.97;;;26.40;;
23802;SDS011;12082;51.786;6.018;2023-02-11T01:31:00;30.97;;;24.50;;
23802;SDS011;12082;51.786;6.018;2023-02-11T01:33:26;34.03;;;24.73;;
23802;SDS011;12082;51.786;6.018;2023-02-11T01:35:52;31.53;;;25.10;;
23802;SDS011;12082;51.786;6.018;2023-02-11T01:38:20;32.33;;;25.30;;
23802;SDS011;12082;51.786;6.018;2023-02-11T01:40:47;28.03;;;25.23;;
23802;SDS011;12082;51.786;6.018;2023-02-11T01:43:13;30.53;;;23.87;;
23802;SDS011;12082;51.786;6.018;2023-02-11T01:48:18;34.07;;;24.47;;
23802;SDS011;12082;51.786;6.018;2023-02-11T01:50:45;33.20;;;24.77;;
23802;SDS011;12082;51.786;6.018;2023-02-11T01:53:12;34.33;;;24.13;;
23802;SDS011;12082;51.786;6.018;2023-02-11T01:55:56;31.70;;;22.90;;
23802;SDS011;12082;51.786;6.018;2023-02-11T01:58:42;40.93;;;26.30;;
23802;SDS011;12082;51.786;6.018;2023-02-11T02:01:09;31.27;;;23.90;;
23802;SDS011;12082;51.786;6.018;2023-02-11T02:03:36;25.77;;;23.00;;
23802;SDS011;12082;51.786;6.018;2023-02-11T02:06:05;31.73;;;23.13;;
23802;SDS011;12082;51.786;6.018;2023-02-11T02:08:50;40.57;;;25.67;;
23802;SDS011;12082;51.786;6.018;2023-02-11T02:11:17;27.43;;;22.77;;
23802;SDS011;12082;51.786;6.018;2023-02-11T02:13:43;30.47;;;23.17;;
23802;SDS011;12082;51.786;6.018;2023-02-11T02:16:13;34.43;;;23.73;;
23802;SDS011;12082;51.786;6.018;2023-02-11T02:18:54;25.60;;;22.87;;
23802;SDS011;12082;51.786;6.018;2023-02-11T02:21:26;25.87;;;23.07;;
23802;SDS011;12082;51.786;6.018;2023-02-11T02:29:46;40.40;;;24.27;;
23802;SDS011;12082;51.786;6.018;2023-02-11T02:32:22;30.37;;;22.57;;
23802;SDS011;12082;51.786;6.018;2023-02-11T02:37:26;32.27;;;21.87;;
23802;SDS011;12082;51.786;6.018;2023-02-11T02:39:53;26.97;;;23.23;;
23802;SDS011;12082;51.786;6.018;2023-02-11T02:42:20;27.67;;;22.50;;
23802;SDS011;12082;51.786;6.018;2023-02-11T02:44:47;36.57;;;23.23;;
23802;SDS011;12082;51.786;6.018;2023-02-11T02:47:13;33.33;;;21.93;;
23802;SDS011;12082;51.786;6.018;2023-02-11T02:49:39;30.17;;;22.57;;
23802;SDS011;12082;51.786;6.018;2023-02-11T02:54:55;34.97;;;23.77;;
23802;SDS011;12082;51.786;6.018;2023-02-11T03:05:15;27.17;;;21.90;;
23802;SDS011;12082;51.786;6.018;2023-02-11T03:07:43;25.33;;;22.53;;
23802;SDS011;12082;51.786;6.018;2023-02-11T03:10:12;29.70;;;20.87;;
23802;SDS011;12082;51.786;6.018;2023-02-11T03:12:40;31.23;;;21.10;;
23802;SDS011;12082;51.786;6.018;2023-02-11T03:15:07;27.47;;;20.93;;
23802;SDS011;12082;51.786;6.018;2023-02-11T03:17:34;32.00;;;22.37;;
23802;SDS011;12082;51.786;6.018;2023-02-11T03:20:01;32.00;;;21.70;;
23802;SDS011;12082;51.786;6.018;2023-02-11T03:22:29;33.40;;;20.53;;
23802;SDS011;12082;51.786;6.018;2023-02-11T03:24:57;29.13;;;21.10;;
23802;SDS011;12082;51.786;6.018;2023-02-11T03:27:28;26.07;;;22.57;;
23802;SDS011;12082;51.786;6.018;2023-02-11T03:30:04;30.43;;;24.50;;
23802;SDS011;12082;51.786;6.018;2023-02-11T03:32:32;31.93;;;23.43;;
23802;SDS011;12082;51.786;6.018;2023-02-11T03:35:20;31.97;;;24.30;;
23802;SDS011;12082;51.786;6.018;2023-02-11T03:37:49;34.10;;;28.27;;
23802;SDS011;12082;51.786;6.018;2023-02-11T03:40:21;30.80;;;25.50;;
23802;SDS011;12082;51.786;6.018;2023-02-11T03:42:49;37.67;;;26.53;;
23802;SDS011;12082;51.786;6.018;2023-02-11T03:45:17;33.67;;;26.30;;
23802;SDS011;12082;51.786;6.018;2023-02-11T03:47:45;30.17;;;27.00;;
23802;SDS011;12082;51.786;6.018;2023-02-11T03:50:13;30.53;;;27.43;;
23802;SDS011;12082;51.786;6.018;2023-02-11T03:52:40;37.30;;;27.87;;
23802;SDS011;12082;51.786;6.018;2023-02-11T03:55:08;33.93;;;27.47;;
23802;SDS011;12082;51.786;6.018;2023-02-11T03:57:36;34.63;;;27.43;;
23802;SDS011;12082;51.786;6.018;2023-02-11T04:00:02;39.47;;;29.97;;
23802;SDS011;12082;51.786;6.018;2023-02-11T04:02:30;32.53;;;29.37;;
23802;SDS011;12082;51.786;6.018;2023-02-11T04:04:57;40.17;;;30.73;;
23802;SDS011;12082;51.786;6.018;2023-02-11T04:07:23;34.13;;;30.57;;
23802;SDS011;12082;51.786;6.018;2023-02-11T04:09:49;35.53;;;30.50;;
23802;SDS011;12082;51.786;6.018;2023-02-11T04:12:15;36.53;;;30.03;;
23802;SDS011;12082;51.786;6.018;2023-02-11T04:14:41;39.13;;;29.00;;
23802;SDS011;12082;51.786;6.018;2023-02-11T04:17:07;36.27;;;29.80;;
23802;SDS011;12082;51.786;6.018;2023-02-11T04:19:34;38.07;;;29.90;;
23802;SDS011;12082;51.786;6.018;2023-02-11T04:22:00;32.73;;;29.40;;
23802;SDS011;12082;51.786;6.018;2023-02-11T04:24:26;33.27;;;29.30;;
23802;SDS011;12082;51.786;6.018;2023-02-11T04:26:51;31.47;;;28.40;;
23802;SDS011;12082;51.786;6.018;2023-02-11T04:29:18;39.53;;;29.27;;
23802;SDS011;12082;51.786;6.018;2023-02-11T04:31:44;35.13;;;28.93;;
23802;SDS011;12082;51.786;6.018;2023-02-11T04:34:10;36.40;;;29.00;;
23802;SDS011;12082;51.786;6.018;2023-02-11T04:36:36;37.53;;;28.67;;
23802;SDS011;12082;51.786;6.018;2023-02-11T04:39:02;32.23;;;28.60;;
23802;SDS011;12082;51.786;6.018;2023-02-11T04:41:29;37.77;;;29.27;;
23802;SDS011;12082;51.786;6.018;2023-02-11T04:43:54;35.33;;;29.77;;
23802;SDS011;12082;51.786;6.018;2023-02-11T04:46:20;41.03;;;28.73;;
23802;SDS011;12082;51.786;6.018;2023-02-11T04:48:46;39.97;;;29.37;;
23802;SDS011;12082;51.786;6.018;2023-02-11T04:51:12;31.57;;;28.17;;
23802;SDS011;12082;51.786;6.018;2023-02-11T04:53:38;34.83;;;29.40;;
23802;SDS011;12082;51.786;6.018;2023-02-11T04:56:04;32.97;;;29.37;;
23802;SDS011;12082;51.786;6.018;2023-02-11T04:58:30;30.93;;;26.93;;
23802;SDS011;12082;51.786;6.018;2023-02-11T05:01:03;37.57;;;27.87;;
23802;SDS011;12082;51.786;6.018;2023-02-11T05:03:29;34.93;;;29.17;;
23802;SDS011;12082;51.786;6.018;2023-02-11T05:05:55;33.23;;;29.63;;
23802;SDS011;12082;51.786;6.018;2023-02-11T05:08:21;37.63;;;31.23;;
23802;SDS011;12082;51.786;6.018;2023-02-11T05:10:47;34.67;;;31.07;;
23802;SDS011;12082;51.786;6.018;2023-02-11T05:13:13;35.23;;;31.63;;
23802;SDS011;12082;51.786;6.018;2023-02-11T05:15:39;33.53;;;30.10;;
23802;SDS011;12082;51.786;6.018;2023-02-11T05:18:05;34.70;;;30.70;;
23802;SDS011;12082;51.786;6.018;2023-02-11T05:20:31;41.50;;;29.93;;
23802;SDS011;12082;51.786;6.018;2023-02-11T05:22:57;42.90;;;30.13;;
23802;SDS011;12082;51.786;6.018;2023-02-11T05:25:23;36.03;;;29.40;;
23802;SDS011;12082;51.786;6.018;2023-02-11T05:27:49;32.77;;;26.60;;
23802;SDS011;12082;51.786;6.018;2023-02-11T05:30:15;36.07;;;28.37;;
23802;SDS011;12082;51.786;6.018;2023-02-11T05:32:41;39.37;;;30.43;;
23802;SDS011;12082;51.786;6.018;2023-02-11T05:35:07;41.50;;;31.27;;
23802;SDS011;12082;51.786;6.018;2023-02-11T05:37:33;35.33;;;30.53;;
23802;SDS011;12082;51.786;6.018;2023-02-11T05:39:59;44.63;;;32.37;;
23802;SDS011;12082;51.786;6.018;2023-02-11T05:42:25;40.27;;;35.87;;
23802;SDS011;12082;51.786;6.018;2023-02-11T05:44:51;39.20;;;35.43;;
23802;SDS011;12082;51.786;6.018;2023-02-11T05:47:17;44.30;;;36.43;;
23802;SDS011;12082;51.786;6.018;2023-02-11T05:49:43;43.97;;;36.63;;
23802;SDS011;12082;51.786;6.018;2023-02-11T05:52:09;44.93;;;36.90;;
23802;SDS011;12082;51.786;6.018;2023-02-11T05:54:35;43.60;;;35.73;;
23802;SDS011;12082;51.786;6.018;2023-02-11T05:57:01;45.77;;;34.60;;
23802;SDS011;12082;51.786;6.018;2023-02-11T05:59:27;41.90;;;34.07;;
23802;SDS011;12082;51.786;6.018;2023-02-11T06:01:53;39.93;;;32.83;;
23802;SDS011;12082;51.786;6.018;2023-02-11T06:04:19;41.70;;;35.43;;
23802;SDS011;12082;51.786;6.018;2023-02-11T06:06:45;37.73;;;33.97;;
23802;SDS011;12082;51.786;6.018;2023-02-11T06:09:11;41.40;;;34.07;;
23802;SDS011;12082;51.786;6.018;2023-02-11T06:11:37;42.07;;;34.77;;
23802;SDS011;12082;51.786;6.018;2023-02-11T06:14:03;42.83;;;35.73;;
23802;SDS011;12082;51.786;6.018;2023-02-11T06:16:29;42.13;;;35.17;;
23802;SDS011;12082;51.786;6.018;2023-02-11T06:18:55;41.50;;;36.10;;
23802;SDS011;12082;51.786;6.018;2023-02-11T06:21:20;41.07;;;34.63;;
23802;SDS011;12082;51.786;6.018;2023-02-11T06:23:46;41.43;;;35.00;;
23802;SDS011;12082;51.786;6.018;2023-02-11T06:26:22;50.97;;;35.87;;
23802;SDS011;12082;51.786;6.018;2023-02-11T06:28:48;48.60;;;37.60;;
23802;SDS011;12082;51.786;6.018;2023-02-11T06:31:14;51.57;;;38.07;;
23802;SDS011;12082;51.786;6.018;2023-02-11T06:33:40;52.23;;;38.27;;
23802;SDS011;12082;51.786;6.018;2023-02-11T06:36:16;43.67;;;37.77;;
23802;SDS011;12082;51.786;6.018;2023-02-11T06:38:43;46.63;;;38.13;;
23802;SDS011;12082;51.786;6.018;2023-02-11T06:41:10;45.67;;;38.37;;
23802;SDS011;12082;51.786;6.018;2023-02-11T06:43:36;47.07;;;37.27;;
23802;SDS011;12082;51.786;6.018;2023-02-11T06:46:02;46.63;;;37.40;;
23802;SDS011;12082;51.786;6.018;2023-02-11T06:48:28;45.67;;;37.23;;
23802;SDS011;12082;51.786;6.018;2023-02-11T06:50:54;47.00;;;36.80;;
23802;SDS011;12082;51.786;6.018;2023-02-11T06:53:20;44.80;;;38.80;;
23802;SDS011;12082;51.786;6.018;2023-02-11T06:55:46;51.37;;;39.30;;
23802;SDS011;12082;51.786;6.018;2023-02-11T06:58:12;52.00;;;35.97;;
23802;SDS011;12082;51.786;6.018;2023-02-11T07:00:38;44.47;;;37.50;;
23802;SDS011;12082;51.786;6.018;2023-02-11T07:03:04;44.00;;;38.83;;
23802;SDS011;12082;51.786;6.018;2023-02-11T07:05:30;45.93;;;37.80;;
23802;SDS011;12082;51.786;6.018;2023-02-11T07:07:58;55.40;;;39.50;;
23802;SDS011;12082;51.786;6.018;2023-02-11T07:10:24;47.87;;;37.70;;
23802;SDS011;12082;51.786;6.018;2023-02-11T07:12:49;53.53;;;37.67;;
23802;SDS011;12082;51.786;6.018;2023-02-11T07:15:15;44.27;;;39.50;;
23802;SDS011;12082;51.786;6.018;2023-02-11T07:17:42;55.83;;;43.37;;
23802;SDS011;12082;51.786;6.018;2023-02-11T07:20:08;47.50;;;41.50;;
23802;SDS011;12082;51.786;6.018;2023-02-11T07:22:36;51.53;;;42.83;;
23802;SDS011;12082;51.786;6.018;2023-02-11T07:25:02;55.57;;;43.47;;
23802;SDS011;12082;51.786;6.018;2023-02-11T07:27:28;55.50;;;43.87;;
23802;SDS011;12082;51.786;6.018;2023-02-11T07:29:54;52.43;;;44.20;;
23802;SDS011;12082;51.786;6.018;2023-02-11T07:32:20;58.90;;;44.23;;
23802;SDS011;12082;51.786;6.018;2023-02-11T07:34:46;59.70;;;42.27;;
23802;SDS011;12082;51.786;6.018;2023-02-11T07:37:13;69.17;;;42.73;;
23802;SDS011;12082;51.786;6.018;2023-02-11T07:39:39;50.90;;;41.73;;
23802;SDS011;12082;51.786;6.018;2023-02-11T07:42:05;59.80;;;40.80;;
23802;SDS011;12082;51.786;6.018;2023-02-11T07:44:31;57.60;;;39.17;;
23802;SDS011;12082;51.786;6.018;2023-02-11T07:46:58;52.07;;;39.53;;
23802;SDS011;12082;51.786;6.018;2023-02-11T07:49:24;57.93;;;41.77;;
23802;SDS011;12082;51.786;6.018;2023-02-11T07:51:50;55.07;;;40.50;;
23802;SDS011;12082;51.786;6.018;2023-02-11T07:54:16;54.87;;;41.03;;
23802;SDS011;12082;51.786;6.018;2023-02-11T07:56:42;50.23;;;41.77;;
23802;SDS011;12082;51.786;6.018;2023-02-11T07:59:09;59.33;;;41.90;;
23802;SDS011;12082;51.786;6.018;2023-02-11T08:01:35;52.73;;;42.17;;
23802;SDS011;12082;51.786;6.018;2023-02-11T08:04:01;55.57;;;43.10;;
23802;SDS011;12082;51.786;6.018;2023-02-11T08:06:29;59.43;;;44.73;;
23802;SDS011;12082;51.786;6.018;2023-02-11T08:08:56;60.20;;;46.60;;
23802;SDS011;12082;51.786;6.018;2023-02-11T08:11:23;58.27;;;47.60;;
23802;SDS011;12082;51.786;6.018;2023-02-11T08:13:49;64.07;;;45.80;;
23802;SDS011;12082;51.786;6.018;2023-02-11T08:16:17;57.93;;;44.10;;
23802;SDS011;12082;51.786;6.018;2023-02-11T08:18:43;64.17;;;42.77;;
23802;SDS011;12082;51.786;6.018;2023-02-11T08:21:09;56.80;;;43.13;;
23802;SDS011;12082;51.786;6.018;2023-02-11T08:23:35;59.47;;;42.30;;
23802;SDS011;12082;51.786;6.018;2023-02-11T08:26:02;65.43;;;44.30;;
23802;SDS011;12082;51.786;6.018;2023-02-11T08:28:28;59.30;;;42.63;;
23802;SDS011;12082;51.786;6.018;2023-02-11T08:30:54;59.03;;;44.33;;
23802;SDS011;12082;51.786;6.018;2023-02-11T08:33:20;58.70;;;44.33;;
23802;SDS011;12082;51.786;6.018;2023-02-11T08:35:46;61.37;;;44.00;;
23802;SDS011;12082;51.786;6.018;2023-02-11T08:38:12;71.30;;;47.27;;
23802;SDS011;12082;51.786;6.018;2023-02-11T08:40:38;71.27;;;47.03;;
23802;SDS011;12082;51.786;6.018;2023-02-11T08:43:04;61.80;;;48.93;;
23802;SDS011;12082;51.786;6.018;2023-02-11T08:45:30;68.80;;;48.20;;
23802;SDS011;12082;51.786;6.018;2023-02-11T08:47:56;69.97;;;49.17;;
23802;SDS011;12082;51.786;6.018;2023-02-11T08:50:22;65.03;;;48.90;;
23802;SDS011;12082;51.786;6.018;2023-02-11T08:52:48;64.87;;;48.50;;
23802;SDS011;12082;51.786;6.018;2023-02-11T08:55:15;74.80;;;46.47;;
23802;SDS011;12082;51.786;6.018;2023-02-11T08:57:41;67.00;;;47.47;;
23802;SDS011;12082;51.786;6.018;2023-02-11T09:00:07;72.47;;;46.50;;
23802;SDS011;12082;51.786;6.018;2023-02-11T09:02:38;72.00;;;45.20;;
23802;SDS011;12082;51.786;6.018;2023-02-11T09:05:04;73.97;;;48.23;;
23802;SDS011;12082;51.786;6.018;2023-02-11T09:07:30;73.63;;;48.23;;
23802;SDS011;12082;51.786;6.018;2023-02-11T09:09:56;68.23;;;47.63;;
23802;SDS011;12082;51.786;6.018;2023-02-11T09:12:21;75.93;;;51.37;;
23802;SDS011;12082;51.786;6.018;2023-02-11T09:14:47;92.17;;;53.53;;
23802;SDS011;12082;51.786;6.018;2023-02-11T09:17:13;66.80;;;47.43;;
23802;SDS011;12082;51.786;6.018;2023-02-11T09:19:39;74.70;;;49.00;;
23802;SDS011;12082;51.786;6.018;2023-02-11T09:22:05;79.10;;;50.57;;
23802;SDS011;12082;51.786;6.018;2023-02-11T09:24:31;70.97;;;48.90;;
23802;SDS011;12082;51.786;6.018;2023-02-11T09:26:57;74.40;;;48.67;;
23802;SDS011;12082;51.786;6.018;2023-02-11T09:29:23;80.57;;;50.27;;
23802;SDS011;12082;51.786;6.018;2023-02-11T09:31:49;73.97;;;50.10;;
23802;SDS011;12082;51.786;6.018;2023-02-11T09:34:15;67.77;;;51.73;;
23802;SDS011;12082;51.786;6.018;2023-02-11T09:36:41;72.23;;;50.07;;
23802;SDS011;12082;51.786;6.018;2023-02-11T09:39:11;72.97;;;48.70;;
23802;SDS011;12082;51.786;6.018;2023-02-11T09:41:40;81.73;;;44.80;;
23802;SDS011;12082;51.786;6.018;2023-02-11T09:44:15;67.33;;;41.57;;
23802;SDS011;12082;51.786;6.018;2023-02-11T09:46:42;69.60;;;42.07;;
23802;SDS011;12082;51.786;6.018;2023-02-11T09:49:14;66.87;;;39.10;;
23802;SDS011;12082;51.786;6.018;2023-02-11T09:51:50;67.53;;;41.47;;
23802;SDS011;12082;51.786;6.018;2023-02-11T09:54:20;62.53;;;40.27;;
23802;SDS011;12082;51.786;6.018;2023-02-11T09:56:48;64.40;;;39.90;;
23802;SDS011;12082;51.786;6.018;2023-02-11T09:59:14;68.53;;;40.83;;
23802;SDS011;12082;51.786;6.018;2023-02-11T10:01:58;61.50;;;40.53;;
23802;SDS011;12082;51.786;6.018;2023-02-11T10:07:05;63.87;;;41.43;;
23802;SDS011;12082;51.786;6.018;2023-02-11T10:09:42;71.23;;;41.20;;
23802;SDS011;12082;51.786;6.018;2023-02-11T10:25:18;64.63;;;42.17;;
23802;SDS011;12082;51.786;6.018;2023-02-11T10:27:44;66.67;;;41.00;;
23802;SDS011;12082;51.786;6.018;2023-02-11T10:35:15;65.03;;;43.87;;
23802;SDS011;12082;51.786;6.018;2023-02-11T10:37:42;64.33;;;41.57;;
23802;SDS011;12082;51.786;6.018;2023-02-11T10:40:16;63.70;;;40.87;;
23802;SDS011;12082;51.786;6.018;2023-02-11T10:42:43;63.80;;;41.63;;
23802;SDS011;12082;51.786;6.018;2023-02-11T10:45:15;68.63;;;38.37;;
23802;SDS011;12082;51.786;6.018;2023-02-11T10:47:42;57.00;;;37.80;;
23802;SDS011;12082;51.786;6.018;2023-02-11T10:50:19;58.13;;;39.43;;
23802;SDS011;12082;51.786;6.018;2023-02-11T10:52:45;59.40;;;38.63;;
23802;SDS011;12082;51.786;6.018;2023-02-11T10:55:15;62.40;;;42.50;;
23802;SDS011;12082;51.786;6.018;2023-02-11T10:58:02;62.63;;;37.70;;
23802;SDS011;12082;51.786;6.018;2023-02-11T11:00:40;57.63;;;36.23;;
23802;SDS011;12082;51.786;6.018;2023-02-11T11:03:16;58.67;;;37.67;;
23802;SDS011;12082;51.786;6.018;2023-02-11T11:05:47;59.53;;;37.83;;
23802;SDS011;12082;51.786;6.018;2023-02-11T11:08:14;62.63;;;37.37;;
23802;SDS011;12082;51.786;6.018;2023-02-11T11:15:44;58.03;;;36.67;;
23802;SDS011;12082;51.786;6.018;2023-02-11T11:18:14;63.70;;;37.10;;
23802;SDS011;12082;51.786;6.018;2023-02-11T11:20:43;63.13;;;37.00;;
23802;SDS011;12082;51.786;6.018;2023-02-11T11:25:38;61.90;;;35.70;;
23802;SDS011;12082;51.786;6.018;2023-02-11T11:28:05;54.60;;;35.47;;
23802;SDS011;12082;51.786;6.018;2023-02-11T11:30:42;63.30;;;36.50;;
23802;SDS011;12082;51.786;6.018;2023-02-11T11:33:15;62.67;;;36.70;;
23802;SDS011;12082;51.786;6.018;2023-02-11T11:35:51;55.50;;;37.80;;
23802;SDS011;12082;51.786;6.018;2023-02-11T11:38:19;54.90;;;35.93;;
23802;SDS011;12082;51.786;6.018;2023-02-11T11:40:45;57.73;;;38.07;;
23802;SDS011;12082;51.786;6.018;2023-02-11T11:43:31;54.70;;;38.00;;
23802;SDS011;12082;51.786;6.018;2023-02-11T11:45:58;55.63;;;36.03;;
23802;SDS011;12082;51.786;6.018;2023-02-11T11:48:30;54.90;;;35.63;;
23802;SDS011;12082;51.786;6.018;2023-02-11T11:56:10;54.30;;;34.90;;
23802;SDS011;12082;51.786;6.018;2023-02-11T11:58:37;50.23;;;36.13;;
23802;SDS011;12082;51.786;6.018;2023-02-11T12:06:38;52.87;;;34.93;;
23802;SDS011;12082;51.786;6.018;2023-02-11T12:14:27;35.80;;;27.20;;
23802;SDS011;12082;51.786;6.018;2023-02-11T12:22:11;35.17;;;26.07;;
23802;SDS011;12082;51.786;6.018;2023-02-11T12:27:24;33.47;;;29.17;;
23802;SDS011;12082;51.786;6.018;2023-02-11T12:29:58;32.43;;;28.90;;
23802;SDS011;12082;51.786;6.018;2023-02-11T12:43:36;37.23;;;24.80;;
23802;SDS011;12082;51.786;6.018;2023-02-11T12:51:54;28.40;;;22.53;;
23802;SDS011;12082;51.786;6.018;2023-02-11T12:54:26;32.47;;;23.70;;
23802;SDS011;12082;51.786;6.018;2023-02-11T12:56:58;33.93;;;24.90;;
23802;SDS011;12082;51.786;6.018;2023-02-11T13:02:16;28.90;;;22.93;;
23802;SDS011;12082;51.786;6.018;2023-02-11T13:04:45;26.10;;;23.40;;
23802;SDS011;12082;51.786;6.018;2023-02-11T13:07:24;27.93;;;23.57;;
23802;SDS011;12082;51.786;6.018;2023-02-11T13:09:53;25.40;;;21.73;;
23802;SDS011;12082;51.786;6.018;2023-02-11T13:12:21;24.37;;;20.03;;
23802;SDS011;12082;51.786;6.018;2023-02-11T13:15:14;25.60;;;23.27;;
23802;SDS011;12082;51.786;6.018;2023-02-11T13:20:46;25.37;;;21.40;;
23802;SDS011;12082;51.786;6.018;2023-02-11T13:25:43;24.57;;;20.57;;
23802;SDS011;12082;51.786;6.018;2023-02-11T13:30:37;22.63;;;20.00;;
23802;SDS011;12082;51.786;6.018;2023-02-11T13:33:17;22.10;;;19.93;;
23802;SDS011;12082;51.786;6.018;2023-02-11T13:38:25;23.93;;;20.17;;
23802;SDS011;12082;51.786;6.018;2023-02-11T13:41:02;24.70;;;21.90;;
23802;SDS011;12082;51.786;6.018;2023-02-11T13:43:29;28.13;;;22.90;;
23802;SDS011;12082;51.786;6.018;2023-02-11T13:45:56;24.43;;;22.00;;
23802;SDS011;12082;51.786;6.018;2023-02-11T13:48:24;24.23;;;18.97;;
23802;SDS011;12082;51.786;6.018;2023-02-11T13:50:52;25.20;;;19.33;;
23802;SDS011;12082;51.786;6.018;2023-02-11T13:53:19;20.20;;;18.37;;
23802;SDS011;12082;51.786;6.018;2023-02-11T13:55:47;21.10;;;18.70;;
23802;SDS011;12082;51.786;6.018;2023-02-11T14:00:42;24.13;;;18.13;;
23802;SDS011;12082;51.786;6.018;2023-02-11T14:11:45;25.30;;;19.93;;
23802;SDS011;12082;51.786;6.018;2023-02-11T14:16:53;23.33;;;18.93;;
23802;SDS011;12082;51.786;6.018;2023-02-11T14:19:37;22.63;;;19.20;;
23802;SDS011;12082;51.786;6.018;2023-02-11T14:22:03;24.80;;;18.27;;
23802;SDS011;12082;51.786;6.018;2023-02-11T14:27:06;23.47;;;18.63;;
23802;SDS011;12082;51.786;6.018;2023-02-11T14:29:44;20.73;;;18.30;;
23802;SDS011;12082;51.786;6.018;2023-02-11T14:32:36;23.13;;;18.60;;
23802;SDS011;12082;51.786;6.018;2023-02-11T14:35:11;21.37;;;19.17;;
23802;SDS011;12082;51.786;6.018;2023-02-11T14:37:44;23.30;;;20.13;;
23802;SDS011;12082;51.786;6.018;2023-02-11T14:42:38;21.87;;;18.70;;
23802;SDS011;12082;51.786;6.018;2023-02-11T14:45:06;25.30;;;19.10;;
23802;SDS011;12082;51.786;6.018;2023-02-11T14:47:35;25.63;;;19.00;;
23802;SDS011;12082;51.786;6.018;2023-02-11T14:50:04;22.10;;;19.57;;
23802;SDS011;12082;51.786;6.018;2023-02-11T14:52:31;22.70;;;19.00;;
23802;SDS011;12082;51.786;6.018;2023-02-11T14:55:24;22.23;;;18.97;;
23802;SDS011;12082;51.786;6.018;2023-02-11T14:57:44;20.77;;;18.67;;
23802;SDS011;12082;51.786;6.018;2023-02-11T15:02:39;21.77;;;19.57;;
23802;SDS011;12082;51.786;6.018;2023-02-11T15:05:14;23.03;;;19.60;;
23802;SDS011;12082;51.786;6.018;2023-02-11T15:07:47;30.50;;;20.87;;
23802;SDS011;12082;51.786;6.018;2023-02-11T15:10:15;22.97;;;19.40;;
23802;SDS011;12082;51.786;6.018;2023-02-11T15:12:44;24.80;;;20.27;;
23802;SDS011;12082;51.786;6.018;2023-02-11T15:15:13;26.20;;;21.87;;
23802;SDS011;12082;51.786;6.018;2023-02-11T15:17:39;23.13;;;20.63;;
23802;SDS011;12082;51.786;6.018;2023-02-11T15:20:06;27.33;;;20.93;;
23802;SDS011;12082;51.786;6.018;2023-02-11T15:22:40;26.83;;;20.47;;
23802;SDS011;12082;51.786;6.018;2023-02-11T15:27:38;24.47;;;21.67;;
23802;SDS011;12082;51.786;6.018;2023-02-11T15:30:16;28.57;;;21.50;;
23802;SDS011;12082;51.786;6.018;2023-02-11T15:32:44;23.97;;;21.50;;
23802;SDS011;12082;51.786;6.018;2023-02-11T15:35:10;29.57;;;22.00;;
23802;SDS011;12082;51.786;6.018;2023-02-11T15:37:37;24.30;;;21.70;;
23802;SDS011;12082;51.786;6.018;2023-02-11T15:40:17;26.00;;;22.77;;
23802;SDS011;12082;51.786;6.018;2023-02-11T15:50:54;29.57;;;22.87;;
23802;SDS011;12082;51.786;6.018;2023-02-11T15:55:49;30.30;;;23.60;;
23802;SDS011;12082;51.786;6.018;2023-02-11T15:58:16;26.63;;;23.03;;
23802;SDS011;12082;51.786;6.018;2023-02-11T16:00:46;33.37;;;22.60;;
23802;SDS011;12082;51.786;6.018;2023-02-11T16:03:20;27.13;;;22.47;;
23802;SDS011;12082;51.786;6.018;2023-02-11T16:05:46;26.60;;;20.83;;
23802;SDS011;12082;51.786;6.018;2023-02-11T16:08:19;28.77;;;21.87;;
23802;SDS011;12082;51.786;6.018;2023-02-11T16:10:56;32.33;;;22.63;;
23802;SDS011;12082;51.786;6.018;2023-02-11T16:13:23;26.63;;;22.70;;
23802;SDS011;12082;51.786;6.018;2023-02-11T16:15:56;29.93;;;22.80;;
23802;SDS011;12082;51.786;6.018;2023-02-11T16:20:48;25.17;;;22.40;;
23802;SDS011;12082;51.786;6.018;2023-02-11T16:23:19;25.43;;;22.20;;
23802;SDS011;12082;51.786;6.018;2023-02-11T16:25:46;28.97;;;24.63;;
23802;SDS011;12082;51.786;6.018;2023-02-11T16:28:15;39.13;;;25.40;;
23802;SDS011;12082;51.786;6.018;2023-02-11T16:30:41;30.00;;;24.00;;
23802;SDS011;12082;51.786;6.018;2023-02-11T16:33:08;28.07;;;22.40;;
23802;SDS011;12082;51.786;6.018;2023-02-11T16:35:34;33.70;;;25.20;;
23802;SDS011;12082;51.786;6.018;2023-02-11T16:38:01;26.50;;;21.03;;
23802;SDS011;12082;51.786;6.018;2023-02-11T16:40:27;26.20;;;22.77;;
23802;SDS011;12082;51.786;6.018;2023-02-11T16:42:53;34.20;;;24.90;;
23802;SDS011;12082;51.786;6.018;2023-02-11T16:45:19;34.90;;;25.13;;
23802;SDS011;12082;51.786;6.018;2023-02-11T16:47:45;34.60;;;25.23;;